createdAt,value
2023-04-26T00:01:57.571Z,5.86
2023-04-26T00:07:00.544Z,5.92
2023-04-26T00:12:02.874Z,5.79
2023-04-26T00:17:04.656Z,5.86
2023-04-26T00:22:06.609Z,5.96
2023-04-26T00:27:10.371Z,5.70
2023-04-26T00:32:12.082Z,5.72
2023-04-26T00:37:13.862Z,5.69
2023-04-26T00:42:15.507Z,5.64
2023-04-26T00:47:17.721Z,5.63
2023-04-26T00:52:19.515Z,5.39
2023-04-26T00:57:22.168Z,5.39
2023-04-26T01:02:24.168Z,5.14
2023-04-26T01:07:26.054Z,5.14
2023-04-26T01:12:29.131Z,5.01
2023-04-26T01:17:31.074Z,4.97
2023-04-26T01:22:33.520Z,4.88
2023-04-26T01:27:36.162Z,4.81
2023-04-26T01:32:37.942Z,4.79
2023-04-26T01:37:39.635Z,4.80
2023-04-26T01:42:41.435Z,4.77
2023-04-26T01:47:43.264Z,4.74
2023-04-26T01:52:45.053Z,4.59
2023-04-26T01:57:46.718Z,4.65
2023-04-26T02:02:48.448Z,4.78
2023-04-26T02:07:51.162Z,4.76
2023-04-26T02:12:52.832Z,4.74
2023-04-26T02:17:55.553Z,4.70
2023-04-26T02:22:57.285Z,4.76
2023-04-26T02:27:59.001Z,4.79
2023-04-26T02:33:00.662Z,4.71
2023-04-26T02:38:04.582Z,4.58
2023-04-26T02:43:06.425Z,4.64
2023-04-26T02:48:08.184Z,4.85
2023-04-26T02:53:09.924Z,4.67
2023-04-26T02:58:11.674Z,4.70
2023-04-26T03:03:14.603Z,4.51
2023-04-26T03:08:16.797Z,4.75
2023-04-26T03:13:18.466Z,4.58
2023-04-26T03:18:20.330Z,4.64
2023-04-26T03:23:24.398Z,4.55
2023-04-26T03:28:27.531Z,4.43
2023-04-26T03:33:30.674Z,4.39
2023-04-26T03:38:32.382Z,4.41
2023-04-26T03:43:34.332Z,4.30
2023-04-26T03:48:36.195Z,4.11
2023-04-26T03:53:38.011Z,4.19
2023-04-26T03:58:40.653Z,4.14
2023-04-26T04:03:42.561Z,4.11
2023-04-26T04:08:44.667Z,4.11
2023-04-26T04:13:46.596Z,4.00
2023-04-26T04:18:48.372Z,3.94
2023-04-26T04:23:50.327Z,3.85
2023-04-26T04:28:53.697Z,3.84
2023-04-26T04:33:55.892Z,3.92
2023-04-26T04:38:58.206Z,3.95
2023-04-26T04:44:01.694Z,4.10
2023-04-26T04:49:04.194Z,3.97
2023-04-26T04:54:17.489Z,4.13
2023-04-26T04:59:21.516Z,4.07
2023-04-26T05:04:23.944Z,4.09
2023-04-26T05:09:26.745Z,4.21
2023-04-26T05:14:30.007Z,4.23
2023-04-26T05:19:32.015Z,4.55
2023-04-26T05:24:33.779Z,4.62
2023-04-26T05:29:35.579Z,4.82
2023-04-26T05:34:42.668Z,4.79
2023-04-26T05:39:50.930Z,5.18
2023-04-26T05:44:58.164Z,5.25
2023-04-26T05:50:00.081Z,5.15
2023-04-26T05:55:04.275Z,5.56
2023-04-26T06:00:06.721Z,5.83
2023-04-26T06:05:15.731Z,5.84
2023-04-26T06:10:18.338Z,6.01
2023-04-26T06:15:20.188Z,6.38
2023-04-26T06:20:22.235Z,6.31
2023-04-26T06:25:24.063Z,6.80
2023-04-26T06:30:26.084Z,6.70
2023-04-26T06:35:28.492Z,6.69
2023-04-26T06:40:30.368Z,7.27
2023-04-26T06:45:32.418Z,7.02
2023-04-26T06:50:40.083Z,7.02
2023-04-26T06:55:41.796Z,7.39
2023-04-26T07:00:43.483Z,7.33
2023-04-26T07:05:45.219Z,7.17
2023-04-26T07:10:47.286Z,7.04
2023-04-26T07:15:49.095Z,7.83
2023-04-26T07:20:54.791Z,7.51
2023-04-26T07:25:57.892Z,6.75
2023-04-26T07:31:01.268Z,6.63
2023-04-26T07:36:03.124Z,7.01
2023-04-26T07:41:05.038Z,7.55
2023-04-26T07:46:06.823Z,7.70
2023-04-26T07:51:10.933Z,8.06
2023-04-26T07:56:12.671Z,7.44
2023-04-26T08:01:15.701Z,7.52
2023-04-26T08:06:18.777Z,7.39
2023-04-26T08:11:20.679Z,7.47
2023-04-26T08:16:22.511Z,7.45
2023-04-26T08:21:24.432Z,7.70
2023-04-26T08:26:26.332Z,8.50
2023-04-26T08:31:28.043Z,8.28
2023-04-26T08:36:29.804Z,7.98
2023-04-26T08:41:42.480Z,8.70
2023-04-26T08:46:53.584Z,8.44
2023-04-26T08:51:57.768Z,8.72
2023-04-26T08:57:00.218Z,8.86
2023-04-26T09:02:05.766Z,8.59
2023-04-26T09:07:08.418Z,8.50
2023-04-26T09:12:10.074Z,8.03
2023-04-26T09:17:27.079Z,8.11
2023-04-26T09:22:28.626Z,8.03
2023-04-26T09:27:37.154Z,8.27
2023-04-26T09:32:50.128Z,9.16
2023-04-26T09:37:59.095Z,8.91
2023-04-26T09:43:13.979Z,8.43
2023-04-26T09:48:22.528Z,8.61
2023-04-26T09:53:28.751Z,9.64
2023-04-26T09:58:30.547Z,10.31
2023-04-26T10:03:34.914Z,10.40
2023-04-26T10:08:38.071Z,9.33
2023-04-26T10:13:41.558Z,8.87
2023-04-26T10:18:43.287Z,8.44
2023-04-26T10:23:45.709Z,8.16
2023-04-26T10:28:47.341Z,8.35
2023-04-26T10:34:18.448Z,9.03
2023-04-26T10:39:25.159Z,8.87
2023-04-26T10:44:40.071Z,8.84
2023-04-26T10:49:47.010Z,9.34
2023-04-26T10:54:53.338Z,9.64
2023-04-26T11:00:10.710Z,9.31
2023-04-26T11:05:37.632Z,9.08
2023-04-26T11:10:39.414Z,9.28
2023-04-26T11:15:41.109Z,9.41
2023-04-26T11:20:44.745Z,9.67
2023-04-26T11:25:46.790Z,10.10
2023-04-26T11:30:49.995Z,10.42
2023-04-26T11:35:55.933Z,9.76
2023-04-26T11:40:58.894Z,9.28
2023-04-26T11:46:03.951Z,8.83
2023-04-26T11:51:07.486Z,8.83
2023-04-26T11:56:20.309Z,8.58
2023-04-26T12:01:29.428Z,8.69
2023-04-26T12:06:32.938Z,8.88
2023-04-26T12:11:34.871Z,9.40
2023-04-26T12:16:37.320Z,9.54
2023-04-26T12:21:43.062Z,9.55
2023-04-26T12:26:45.035Z,9.23
2023-04-26T12:31:47.191Z,9.27
2023-04-26T12:36:49.053Z,9.81
2023-04-26T12:41:51.129Z,9.72
2023-04-26T12:46:52.826Z,10.08
2023-04-26T12:51:54.635Z,10.14
2023-04-26T12:56:56.413Z,9.72
2023-04-26T13:01:58.245Z,9.53
2023-04-26T13:07:00.023Z,9.58
2023-04-26T13:12:01.762Z,9.77
2023-04-26T13:17:04.734Z,9.96
2023-04-26T13:22:08.297Z,9.82
2023-04-26T13:27:10.110Z,10.34
2023-04-26T13:32:11.980Z,10.19
2023-04-26T13:37:13.946Z,9.81
2023-04-26T13:42:16.709Z,9.86
2023-04-26T13:47:18.489Z,9.77
2023-04-26T13:52:20.222Z,9.82
2023-04-26T13:57:21.932Z,9.92
2023-04-26T14:02:24.608Z,10.00
2023-04-26T14:07:26.850Z,10.07
2023-04-26T14:12:29.446Z,10.53
2023-04-26T14:17:32.444Z,10.18
2023-04-26T14:22:34.307Z,10.09
2023-04-26T14:27:36.127Z,9.94
2023-04-26T14:32:37.905Z,9.81
2023-04-26T14:37:39.728Z,9.79
2023-04-26T14:42:46.216Z,9.48
2023-04-26T14:47:48.176Z,9.63
2023-04-26T14:52:49.923Z,9.69
2023-04-26T14:57:52.412Z,9.68
2023-04-26T15:02:54.293Z,9.51
2023-04-26T15:07:57.098Z,9.56
2023-04-26T15:12:58.778Z,9.78
2023-04-26T15:18:00.933Z,9.70
2023-04-26T15:23:02.702Z,9.75
2023-04-26T15:28:04.698Z,9.46
2023-04-26T15:33:07.766Z,9.46
2023-04-26T15:38:09.544Z,9.39
2023-04-26T15:43:11.639Z,9.19
2023-04-26T15:48:13.403Z,9.23
2023-04-26T15:53:15.178Z,9.31
2023-04-26T15:58:17.169Z,9.20
2023-04-26T16:03:19.275Z,9.08
2023-04-26T16:08:39.597Z,8.87
2023-04-26T16:13:42.219Z,8.98
2023-04-26T16:18:44.469Z,8.89
2023-04-26T16:23:46.425Z,8.82
2023-04-26T16:28:49.453Z,8.77
2023-04-26T16:33:51.406Z,8.77
2023-04-26T16:38:54.400Z,8.65
2023-04-26T16:43:56.131Z,8.57
2023-04-26T16:48:57.766Z,8.72
2023-04-26T16:53:59.458Z,8.86
2023-04-26T16:59:01.234Z,8.88
2023-04-26T17:04:03.540Z,8.61
2023-04-26T17:09:05.752Z,8.68
2023-04-26T17:14:07.435Z,8.63
2023-04-26T17:19:09.200Z,8.59
2023-04-26T17:24:11.003Z,8.68
2023-04-26T17:29:12.739Z,8.32
2023-04-26T17:34:14.391Z,8.52
2023-04-26T17:39:17.475Z,8.58
2023-04-26T17:44:19.258Z,8.58
2023-04-26T17:49:22.515Z,8.33
2023-04-26T17:54:24.281Z,8.25
2023-04-26T17:59:26.255Z,8.16
2023-04-26T18:04:28.114Z,8.13
2023-04-26T18:09:30.535Z,8.12
2023-04-26T18:14:32.238Z,7.98
2023-04-26T18:19:34.073Z,7.91
2023-04-26T18:24:35.920Z,7.85
2023-04-26T18:29:37.672Z,8.30
2023-04-26T18:34:39.981Z,8.22
2023-04-26T18:39:41.809Z,8.14
2023-04-26T18:44:43.525Z,8.02
2023-04-26T18:49:45.226Z,8.02
2023-04-26T18:54:46.915Z,7.94
2023-04-26T18:59:49.395Z,8.07
2023-04-26T19:04:51.165Z,7.91
2023-04-26T19:09:56.998Z,7.67
2023-04-26T19:15:00.824Z,7.55
2023-04-26T19:20:07.167Z,7.47
2023-04-26T19:25:09.828Z,7.56
2023-04-26T19:30:12.207Z,7.36
2023-04-26T19:35:14.010Z,7.46
2023-04-26T19:40:15.832Z,7.50
2023-04-26T19:45:20.439Z,7.32
2023-04-26T19:50:22.086Z,7.29
2023-04-26T19:55:23.932Z,7.40
2023-04-26T20:00:26.014Z,7.51
2023-04-26T20:05:28.349Z,7.29
2023-04-26T20:10:32.112Z,7.28
2023-04-26T20:15:34.235Z,7.19
2023-04-26T20:20:35.867Z,7.32
2023-04-26T20:25:37.641Z,7.26
2023-04-26T20:30:39.327Z,6.93
2023-04-26T20:35:41.331Z,6.93
2023-04-26T20:40:43.220Z,6.73
2023-04-26T20:45:44.943Z,6.47
2023-04-26T20:50:46.605Z,6.38
2023-04-26T20:55:48.308Z,6.38
2023-04-26T21:00:55.296Z,5.88
2023-04-26T21:05:57.025Z,5.70
2023-04-26T21:10:58.863Z,5.50
2023-04-26T21:16:00.552Z,5.60
2023-04-26T21:21:02.298Z,5.51
2023-04-26T21:26:04.059Z,5.58
2023-04-26T21:31:07.416Z,5.55
2023-04-26T21:36:09.357Z,5.64
2023-04-26T21:41:11.196Z,5.41
2023-04-26T21:46:12.893Z,5.51
2023-04-26T21:51:14.642Z,5.57
2023-04-26T21:56:16.540Z,5.46
2023-04-26T22:01:21.206Z,5.31
2023-04-26T22:06:22.964Z,5.21
2023-04-26T22:11:24.618Z,4.94
2023-04-26T22:16:26.345Z,4.67
2023-04-26T22:21:28.482Z,4.50
2023-04-26T22:26:30.358Z,4.38
2023-04-26T22:31:32.067Z,4.28
2023-04-26T22:36:33.770Z,4.28
2023-04-26T22:41:35.514Z,4.18
2023-04-26T22:46:37.178Z,4.05
2023-04-26T22:51:38.855Z,3.98
2023-04-26T22:56:40.548Z,3.95
2023-04-26T23:01:42.378Z,3.84
2023-04-26T23:06:44.182Z,3.72
2023-04-26T23:11:46.233Z,3.68
2023-04-26T23:16:47.902Z,3.63
2023-04-26T23:21:49.757Z,3.62
2023-04-26T23:26:51.458Z,3.76
2023-04-26T23:31:53.406Z,3.67
2023-04-26T23:36:55.155Z,3.46
2023-04-26T23:41:57.562Z,3.34
2023-04-26T23:46:59.300Z,3.28
2023-04-26T23:52:00.935Z,3.30
2023-04-26T23:57:04.082Z,3.44
